Limoeiro Do Ajuru, Brazil
Current Conditions -  °F | °C
As of 1:00 PM on Saturday 20 Dec 2014 (Local Time) from SBBE Reporting Station
Scattered Clouds Scattered Clouds  
Wind Chill: 91°   Ceiling: Unl
Heat Index: 97°   Visibility: 6mi
Dew Point: 70°   Wind: 14mph
Humidity: 49%   Direction: 80°E
Pressure: 29.85"   Gusts: NA
Location:  1.93°S, 49.37°W
Report Text: SBBE 201600Z 08012KT 9999 SCT035 33/21 Q1011
Loading
Personal Weather Stations






























Interactive Weather Map New forecast layout! Learn more

10-Day Weather Forecast

Advertisements
Track Severe Weather on mobile